sensor_id;sensor_type;location;lat;lon;timestamp;pressure;altitude;pressure_sealevel;temperature;humidity
77979;BME280;67169;50.268;8.694;2024-03-23T00:52:01;98857.59;;;6.17;100.00
77979;BME280;67169;50.268;8.694;2024-03-23T00:54:26;98849.59;;;6.17;100.00
77979;BME280;67169;50.268;8.694;2024-03-23T00:56:53;98837.22;;;6.14;100.00
77979;BME280;67169;50.268;8.694;2024-03-23T00:59:19;98837.03;;;6.19;100.00
77979;BME280;67169;50.268;8.694;2024-03-23T01:01:47;98839.47;;;6.27;100.00
77979;BME280;67169;50.268;8.694;2024-03-23T01:04:12;98834.72;;;6.35;100.00
77979;BME280;67169;50.268;8.694;2024-03-23T01:06:39;98835.41;;;6.40;100.00
77979;BME280;67169;50.268;8.694;2024-03-23T01:09:06;98817.59;;;6.40;100.00
77979;BME280;67169;50.268;8.694;2024-03-23T01:11:34;98810.56;;;6.38;100.00
77979;BME280;67169;50.268;8.694;2024-03-23T01:14:00;98816.38;;;6.49;100.00
77979;BME280;67169;50.268;8.694;2024-03-23T01:16:26;98802.50;;;6.39;100.00
77979;BME280;67169;50.268;8.694;2024-03-23T01:18:51;98808.59;;;6.43;100.00
77979;BME280;67169;50.268;8.694;2024-03-23T01:21:18;98801.47;;;6.44;100.00
77979;BME280;67169;50.268;8.694;2024-03-23T01:23:43;98790.66;;;6.47;100.00
77979;BME280;67169;50.268;8.694;2024-03-23T01:26:11;98796.00;;;6.47;100.00
77979;BME280;67169;50.268;8.694;2024-03-23T01:28:37;98792.56;;;6.43;100.00
77979;BME280;67169;50.268;8.694;2024-03-23T01:31:03;98795.34;;;6.40;100.00
77979;BME280;67169;50.268;8.694;2024-03-23T01:33:29;98790.16;;;6.37;100.00
77979;BME280;67169;50.268;8.694;2024-03-23T01:35:55;98788.34;;;6.37;100.00
77979;BME280;67169;50.268;8.694;2024-03-23T01:38:21;98773.28;;;6.35;100.00
77979;BME280;67169;50.268;8.694;2024-03-23T01:40:47;98764.84;;;6.22;100.00
77979;BME280;67169;50.268;8.694;2024-03-23T01:43:14;98775.38;;;6.27;100.00
77979;BME280;67169;50.268;8.694;2024-03-23T01:45:41;98772.94;;;6.21;100.00
77979;BME280;67169;50.268;8.694;2024-03-23T01:48:07;98761.59;;;6.14;100.00
77979;BME280;67169;50.268;8.694;2024-03-23T01:50:34;98761.03;;;6.06;100.00
77979;BME280;67169;50.268;8.694;2024-03-23T01:53:00;98756.75;;;6.00;100.00
77979;BME280;67169;50.268;8.694;2024-03-23T01:55:28;98753.97;;;6.03;100.00
77979;BME280;67169;50.268;8.694;2024-03-23T01:57:56;98717.09;;;5.89;100.00
77979;BME280;67169;50.268;8.694;2024-03-23T02:00:24;98743.31;;;6.03;100.00
77979;BME280;67169;50.268;8.694;2024-03-23T02:02:50;98749.78;;;5.96;100.00
77979;BME280;67169;50.268;8.694;2024-03-23T02:05:17;98752.47;;;5.96;100.00
77979;BME280;67169;50.268;8.694;2024-03-23T02:07:42;98739.88;;;5.73;100.00
77979;BME280;67169;50.268;8.694;2024-03-23T02:10:10;98747.13;;;5.69;100.00
77979;BME280;67169;50.268;8.694;2024-03-23T02:12:38;98746.09;;;5.74;100.00
77979;BME280;67169;50.268;8.694;2024-03-23T02:15:05;98737.41;;;5.68;100.00
77979;BME280;67169;50.268;8.694;2024-03-23T02:17:33;98686.66;;;5.45;100.00
77979;BME280;67169;50.268;8.694;2024-03-23T02:20:00;98739.47;;;5.85;100.00
77979;BME280;67169;50.268;8.694;2024-03-23T02:22:35;98721.69;;;5.84;100.00
77979;BME280;67169;50.268;8.694;2024-03-23T02:25:03;98711.75;;;5.89;100.00
77979;BME280;67169;50.268;8.694;2024-03-23T02:27:29;98708.91;;;5.96;100.00
77979;BME280;67169;50.268;8.694;2024-03-23T02:29:55;98711.16;;;6.06;100.00
77979;BME280;67169;50.268;8.694;2024-03-23T02:32:21;98709.38;;;6.07;100.00
77979;BME280;67169;50.268;8.694;2024-03-23T02:34:47;98707.47;;;6.10;100.00
77979;BME280;67169;50.268;8.694;2024-03-23T02:37:13;98698.69;;;6.07;100.00
77979;BME280;67169;50.268;8.694;2024-03-23T02:39:39;98709.25;;;6.10;100.00
77979;BME280;67169;50.268;8.694;2024-03-23T02:42:06;98683.75;;;6.01;100.00
77979;BME280;67169;50.268;8.694;2024-03-23T02:44:33;98681.69;;;6.09;100.00
77979;BME280;67169;50.268;8.694;2024-03-23T02:46:58;98689.94;;;6.27;100.00
77979;BME280;67169;50.268;8.694;2024-03-23T02:49:25;98683.06;;;6.43;100.00
77979;BME280;67169;50.268;8.694;2024-03-23T02:51:50;98677.38;;;6.52;100.00
77979;BME280;67169;50.268;8.694;2024-03-23T02:54:17;98668.19;;;6.59;100.00
77979;BME280;67169;50.268;8.694;2024-03-23T02:56:42;98662.47;;;6.69;100.00
77979;BME280;67169;50.268;8.694;2024-03-23T02:59:10;98654.28;;;6.73;100.00
77979;BME280;67169;50.268;8.694;2024-03-23T03:01:36;98660.94;;;6.85;100.00
77979;BME280;67169;50.268;8.694;2024-03-23T03:04:02;98662.56;;;6.89;100.00
77979;BME280;67169;50.268;8.694;2024-03-23T03:06:29;98667.69;;;6.94;100.00
77979;BME280;67169;50.268;8.694;2024-03-23T03:08:56;98664.09;;;6.95;100.00
77979;BME280;67169;50.268;8.694;2024-03-23T03:11:21;98652.28;;;7.00;100.00
77979;BME280;67169;50.268;8.694;2024-03-23T03:13:48;98644.13;;;7.03;100.00
77979;BME280;67169;50.268;8.694;2024-03-23T03:16:14;98645.94;;;7.03;100.00
77979;BME280;67169;50.268;8.694;2024-03-23T03:18:41;98648.53;;;7.04;100.00
77979;BME280;67169;50.268;8.694;2024-03-23T03:21:07;98614.25;;;6.94;100.00
77979;BME280;67169;50.268;8.694;2024-03-23T03:23:36;98632.97;;;7.14;100.00
77979;BME280;67169;50.268;8.694;2024-03-23T03:26:01;98631.88;;;7.20;100.00
77979;BME280;67169;50.268;8.694;2024-03-23T03:28:28;98625.69;;;7.18;100.00
77979;BME280;67169;50.268;8.694;2024-03-23T03:30:55;98624.84;;;7.17;100.00
77979;BME280;67169;50.268;8.694;2024-03-23T03:33:23;98631.56;;;7.26;100.00
77979;BME280;67169;50.268;8.694;2024-03-23T03:35:49;98580.97;;;7.01;100.00
77979;BME280;67169;50.268;8.694;2024-03-23T03:38:17;98625.19;;;7.30;100.00
77979;BME280;67169;50.268;8.694;2024-03-23T03:40:42;98608.84;;;7.36;100.00
77979;BME280;67169;50.268;8.694;2024-03-23T03:43:08;98598.03;;;7.39;100.00
77979;BME280;67169;50.268;8.694;2024-03-23T03:45:34;98580.91;;;7.43;100.00
77979;BME280;67169;50.268;8.694;2024-03-23T03:48:00;98580.91;;;7.43;100.00
77979;BME280;67169;50.268;8.694;2024-03-23T03:50:27;98589.00;;;7.42;100.00
77979;BME280;67169;50.268;8.694;2024-03-23T03:52:53;98578.56;;;7.35;100.00
77979;BME280;67169;50.268;8.694;2024-03-23T03:55:19;98597.38;;;7.34;100.00
77979;BME280;67169;50.268;8.694;2024-03-23T03:57:46;98597.88;;;7.42;100.00
77979;BME280;67169;50.268;8.694;2024-03-23T04:00:12;98595.22;;;7.42;100.00
77979;BME280;67169;50.268;8.694;2024-03-23T04:02:38;98610.53;;;7.38;100.00
77979;BME280;67169;50.268;8.694;2024-03-23T04:05:04;98632.13;;;7.34;100.00
77979;BME280;67169;50.268;8.694;2024-03-23T04:07:32;98653.88;;;7.26;100.00
77979;BME280;67169;50.268;8.694;2024-03-23T04:09:58;98653.28;;;7.60;100.00
77979;BME280;67169;50.268;8.694;2024-03-23T04:12:24;98651.03;;;7.50;100.00
77979;BME280;67169;50.268;8.694;2024-03-23T04:14:50;98660.34;;;7.41;100.00
77979;BME280;67169;50.268;8.694;2024-03-23T04:17:16;98644.34;;;7.40;100.00
77979;BME280;67169;50.268;8.694;2024-03-23T04:19:42;98650.66;;;7.38;100.00
77979;BME280;67169;50.268;8.694;2024-03-23T04:22:08;98642.59;;;7.40;100.00
77979;BME280;67169;50.268;8.694;2024-03-23T04:24:35;98643.56;;;7.37;100.00
77979;BME280;67169;50.268;8.694;2024-03-23T04:27:02;98650.03;;;7.32;100.00
77979;BME280;67169;50.268;8.694;2024-03-23T04:29:28;98652.19;;;7.24;100.00
77979;BME280;67169;50.268;8.694;2024-03-23T04:31:54;98637.84;;;7.04;100.00
77979;BME280;67169;50.268;8.694;2024-03-23T04:34:21;98655.81;;;7.01;100.00
77979;BME280;67169;50.268;8.694;2024-03-23T04:36:48;98637.00;;;6.82;100.00
77979;BME280;67169;50.268;8.694;2024-03-23T04:39:13;98651.28;;;6.81;100.00
77979;BME280;67169;50.268;8.694;2024-03-23T04:41:41;98641.09;;;6.69;100.00
77979;BME280;67169;50.268;8.694;2024-03-23T04:44:08;98648.50;;;6.62;100.00
77979;BME280;67169;50.268;8.694;2024-03-23T04:46:34;98638.91;;;6.56;100.00
77979;BME280;67169;50.268;8.694;2024-03-23T04:49:00;98631.53;;;6.41;100.00
77979;BME280;67169;50.268;8.694;2024-03-23T04:51:35;98626.72;;;6.27;100.00
77979;BME280;67169;50.268;8.694;2024-03-23T04:54:02;98626.22;;;6.17;100.00
77979;BME280;67169;50.268;8.694;2024-03-23T04:56:28;98614.06;;;6.09;100.00
77979;BME280;67169;50.268;8.694;2024-03-23T04:58:56;98608.28;;;5.98;100.00
77979;BME280;67169;50.268;8.694;2024-03-23T05:01:26;98620.88;;;5.94;100.00
77979;BME280;67169;50.268;8.694;2024-03-23T05:03:52;98633.38;;;5.92;100.00
77979;BME280;67169;50.268;8.694;2024-03-23T05:06:18;98646.84;;;5.89;100.00
77979;BME280;67169;50.268;8.694;2024-03-23T05:08:46;98645.03;;;5.89;100.00
77979;BME280;67169;50.268;8.694;2024-03-23T05:11:12;98655.75;;;5.88;99.96
77979;BME280;67169;50.268;8.694;2024-03-23T05:13:38;98657.56;;;5.87;99.99
77979;BME280;67169;50.268;8.694;2024-03-23T05:16:05;98643.34;;;5.87;99.71
77979;BME280;67169;50.268;8.694;2024-03-23T05:18:32;98649.63;;;5.86;99.27
77979;BME280;67169;50.268;8.694;2024-03-23T05:20:57;98664.81;;;5.84;99.42
77979;BME280;67169;50.268;8.694;2024-03-23T05:23:24;98682.53;;;5.85;99.26
77979;BME280;67169;50.268;8.694;2024-03-23T05:25:50;98675.59;;;5.81;99.02
77979;BME280;67169;50.268;8.694;2024-03-23T05:28:18;98668.59;;;5.78;98.85
77979;BME280;67169;50.268;8.694;2024-03-23T05:30:44;98693.34;;;5.82;98.75
77979;BME280;67169;50.268;8.694;2024-03-23T05:33:17;98712.81;;;5.84;98.67
77979;BME280;67169;50.268;8.694;2024-03-23T05:35:43;98717.38;;;5.82;98.82
77979;BME280;67169;50.268;8.694;2024-03-23T05:38:09;98727.03;;;5.84;98.56
77979;BME280;67169;50.268;8.694;2024-03-23T05:40:34;98733.25;;;5.85;98.64
77979;BME280;67169;50.268;8.694;2024-03-23T05:43:02;98710.38;;;5.78;98.35
77979;BME280;67169;50.268;8.694;2024-03-23T05:45:28;98745.69;;;5.86;98.32
77979;BME280;67169;50.268;8.694;2024-03-23T05:47:55;98751.81;;;5.88;98.30
77979;BME280;67169;50.268;8.694;2024-03-23T05:50:23;98758.09;;;5.87;98.17
77979;BME280;67169;50.268;8.694;2024-03-23T05:52:50;98795.44;;;5.87;98.33
77979;BME280;67169;50.268;8.694;2024-03-23T05:55:15;98803.34;;;5.90;98.27
77979;BME280;67169;50.268;8.694;2024-03-23T05:57:42;98799.03;;;5.86;97.85
77979;BME280;67169;50.268;8.694;2024-03-23T06:00:07;98789.28;;;5.85;97.83
77979;BME280;67169;50.268;8.694;2024-03-23T06:02:41;98798.53;;;5.75;97.23
77979;BME280;67169;50.268;8.694;2024-03-23T06:05:07;98811.16;;;5.69;97.19
77979;BME280;67169;50.268;8.694;2024-03-23T06:07:35;98824.59;;;5.66;96.87
77979;BME280;67169;50.268;8.694;2024-03-23T06:10:00;98837.31;;;5.58;96.84
77979;BME280;67169;50.268;8.694;2024-03-23T06:12:27;98846.34;;;5.54;96.57
77979;BME280;67169;50.268;8.694;2024-03-23T06:14:52;98836.69;;;5.50;96.72
77979;BME280;67169;50.268;8.694;2024-03-23T06:17:18;98826.19;;;5.45;96.50
77979;BME280;67169;50.268;8.694;2024-03-23T06:19:44;98821.88;;;5.41;96.47
77979;BME280;67169;50.268;8.694;2024-03-23T06:22:10;98826.44;;;5.38;96.52
77979;BME280;67169;50.268;8.694;2024-03-23T06:24:37;98821.91;;;5.40;96.74
77979;BME280;67169;50.268;8.694;2024-03-23T06:27:04;98813.28;;;5.32;96.42
77979;BME280;67169;50.268;8.694;2024-03-23T06:29:29;98818.63;;;5.32;96.14
77979;BME280;67169;50.268;8.694;2024-03-23T06:31:56;98827.81;;;5.23;95.28
77979;BME280;67169;50.268;8.694;2024-03-23T06:34:21;98846.66;;;5.15;94.41
77979;BME280;67169;50.268;8.694;2024-03-23T06:36:48;98865.16;;;5.21;94.12
77979;BME280;67169;50.268;8.694;2024-03-23T06:39:14;98873.91;;;5.27;93.95
77979;BME280;67169;50.268;8.694;2024-03-23T06:41:42;98875.53;;;5.31;94.00
77979;BME280;67169;50.268;8.694;2024-03-23T06:44:08;98887.22;;;5.27;93.61
77979;BME280;67169;50.268;8.694;2024-03-23T06:46:34;98902.28;;;5.28;93.33
77979;BME280;67169;50.268;8.694;2024-03-23T06:49:02;98902.03;;;5.06;93.21
77979;BME280;67169;50.268;8.694;2024-03-23T06:51:28;98934.44;;;5.23;92.86
77979;BME280;67169;50.268;8.694;2024-03-23T06:53:54;98946.84;;;5.22;92.76
77979;BME280;67169;50.268;8.694;2024-03-23T06:56:21;98940.56;;;5.25;92.28
77979;BME280;67169;50.268;8.694;2024-03-23T06:58:48;98942.19;;;5.31;92.25
77979;BME280;67169;50.268;8.694;2024-03-23T07:01:14;98948.25;;;5.36;92.14
77979;BME280;67169;50.268;8.694;2024-03-23T07:03:40;98957.88;;;5.40;92.39
77979;BME280;67169;50.268;8.694;2024-03-23T07:06:06;98962.13;;;5.47;92.21
77979;BME280;67169;50.268;8.694;2024-03-23T07:08:31;98955.88;;;5.48;91.98
77979;BME280;67169;50.268;8.694;2024-03-23T07:10:58;98961.13;;;5.79;91.82
77979;BME280;67169;50.268;8.694;2024-03-23T07:13:23;98965.78;;;6.02;91.24
77979;BME280;67169;50.268;8.694;2024-03-23T07:15:57;98966.81;;;6.25;91.28
77979;BME280;67169;50.268;8.694;2024-03-23T07:18:25;98970.28;;;6.00;90.02
77979;BME280;67169;50.268;8.694;2024-03-23T07:20:53;98971.75;;;5.81;89.79
77979;BME280;67169;50.268;8.694;2024-03-23T07:23:19;98941.34;;;5.58;89.66
77979;BME280;67169;50.268;8.694;2024-03-23T07:25:45;98986.78;;;5.55;89.59
77979;BME280;67169;50.268;8.694;2024-03-23T07:28:21;98991.97;;;5.60;89.76
77979;BME280;67169;50.268;8.694;2024-03-23T07:30:47;98975.84;;;5.64;89.48
77979;BME280;67169;50.268;8.694;2024-03-23T07:33:14;98994.47;;;5.96;89.76
77979;BME280;67169;50.268;8.694;2024-03-23T07:35:41;98981.91;;;5.98;88.33
77979;BME280;67169;50.268;8.694;2024-03-23T07:38:06;98974.31;;;5.84;87.89
77979;BME280;67169;50.268;8.694;2024-03-23T07:40:32;98963.81;;;5.50;87.44
77979;BME280;67169;50.268;8.694;2024-03-23T07:42:58;98989.72;;;5.46;87.53
77979;BME280;67169;50.268;8.694;2024-03-23T07:45:24;98995.03;;;5.46;87.52
77979;BME280;67169;50.268;8.694;2024-03-23T07:47:50;99015.38;;;5.50;87.57
77979;BME280;67169;50.268;8.694;2024-03-23T07:50:18;99011.03;;;5.47;87.39
77979;BME280;67169;50.268;8.694;2024-03-23T07:52:43;99003.63;;;5.26;87.30
77979;BME280;67169;50.268;8.694;2024-03-23T07:55:10;98993.41;;;5.11;87.61
77979;BME280;67169;50.268;8.694;2024-03-23T07:57:35;99033.53;;;5.37;87.70
77979;BME280;67169;50.268;8.694;2024-03-23T08:00:03;99044.06;;;5.42;87.13
77979;BME280;67169;50.268;8.694;2024-03-23T08:02:28;99040.53;;;5.41;87.26
77979;BME280;67169;50.268;8.694;2024-03-23T08:04:56;99006.25;;;5.28;87.29
77979;BME280;67169;50.268;8.694;2024-03-23T08:07:24;99037.53;;;5.52;87.07
77979;BME280;67169;50.268;8.694;2024-03-23T08:09:51;99060.28;;;5.64;87.13
77979;BME280;67169;50.268;8.694;2024-03-23T08:12:17;99030.38;;;5.54;87.31
77979;BME280;67169;50.268;8.694;2024-03-23T08:14:43;99055.94;;;5.92;86.69
77979;BME280;67169;50.268;8.694;2024-03-23T08:17:09;99061.75;;;6.05;86.30
77979;BME280;67169;50.268;8.694;2024-03-23T08:19:36;99049.41;;;6.29;85.36
77979;BME280;67169;50.268;8.694;2024-03-23T08:22:02;99072.81;;;7.02;83.98
77979;BME280;67169;50.268;8.694;2024-03-23T08:24:30;99066.72;;;6.99;83.54
77979;BME280;67169;50.268;8.694;2024-03-23T08:26:55;99064.47;;;7.36;82.55
77979;BME280;67169;50.268;8.694;2024-03-23T08:29:22;99048.25;;;6.91;81.99
77979;BME280;67169;50.268;8.694;2024-03-23T08:31:47;99060.59;;;6.69;81.72
77979;BME280;67169;50.268;8.694;2024-03-23T08:34:14;99071.69;;;6.56;82.30
77979;BME280;67169;50.268;8.694;2024-03-23T08:36:39;99078.84;;;6.56;82.69
77979;BME280;67169;50.268;8.694;2024-03-23T08:39:07;99065.00;;;6.15;83.17
77979;BME280;67169;50.268;8.694;2024-03-23T08:41:33;99088.16;;;6.42;83.56
77979;BME280;67169;50.268;8.694;2024-03-23T08:44:00;99090.28;;;6.59;83.60
77979;BME280;67169;50.268;8.694;2024-03-23T08:46:25;99082.19;;;6.62;83.26
77979;BME280;67169;50.268;8.694;2024-03-23T08:48:52;99095.84;;;6.80;82.92
77979;BME280;67169;50.268;8.694;2024-03-23T08:51:18;99086.19;;;6.76;82.67
77979;BME280;67169;50.268;8.694;2024-03-23T08:53:45;99095.50;;;7.16;81.89
77979;BME280;67169;50.268;8.694;2024-03-23T08:56:11;99077.72;;;7.65;80.53
77979;BME280;67169;50.268;8.694;2024-03-23T08:58:39;99064.19;;;7.91;79.05
77979;BME280;67169;50.268;8.694;2024-03-23T09:01:07;99055.81;;;7.77;79.14
77979;BME280;67169;50.268;8.694;2024-03-23T09:03:35;99065.81;;;7.48;78.48
77979;BME280;67169;50.268;8.694;2024-03-23T09:06:02;99099.72;;;7.48;78.73
77979;BME280;67169;50.268;8.694;2024-03-23T09:08:35;99100.94;;;7.64;79.05
77979;BME280;67169;50.268;8.694;2024-03-23T09:11:03;99082.19;;;7.64;78.58
77979;BME280;67169;50.268;8.694;2024-03-23T09:13:31;99080.53;;;8.52;76.52
77979;BME280;67169;50.268;8.694;2024-03-23T09:15:58;99056.75;;;8.87;74.16
77979;BME280;67169;50.268;8.694;2024-03-23T09:18:25;99058.00;;;8.58;73.43
77979;BME280;67169;50.268;8.694;2024-03-23T09:20:51;99072.06;;;8.41;73.56
77979;BME280;67169;50.268;8.694;2024-03-23T09:23:18;99046.66;;;8.06;74.76
77979;BME280;67169;50.268;8.694;2024-03-23T09:25:44;99101.63;;;7.69;75.27
77979;BME280;67169;50.268;8.694;2024-03-23T09:28:10;99094.66;;;7.64;75.41
77979;BME280;67169;50.268;8.694;2024-03-23T09:30:36;99096.84;;;7.54;74.85
77979;BME280;67169;50.268;8.694;2024-03-23T09:33:08;99078.38;;;7.46;74.08
77979;BME280;67169;50.268;8.694;2024-03-23T09:35:36;99074.06;;;7.42;73.33
77979;BME280;67169;50.268;8.694;2024-03-23T09:38:04;99062.81;;;7.57;71.96
77979;BME280;67169;50.268;8.694;2024-03-23T09:40:29;99063.50;;;7.86;72.34
77979;BME280;67169;50.268;8.694;2024-03-23T09:42:56;99054.50;;;7.65;71.62
77979;BME280;67169;50.268;8.694;2024-03-23T09:45:26;99066.88;;;7.68;71.72
77979;BME280;67169;50.268;8.694;2024-03-23T09:47:55;99044.34;;;7.73;70.74
77979;BME280;67169;50.268;8.694;2024-03-23T09:50:22;99043.47;;;8.64;68.96
77979;BME280;67169;50.268;8.694;2024-03-23T09:52:49;99043.19;;;9.33;66.92
77979;BME280;67169;50.268;8.694;2024-03-23T09:55:14;99044.97;;;8.91;66.54
77979;BME280;67169;50.268;8.694;2024-03-23T09:57:41;99056.09;;;8.60;66.98
77979;BME280;67169;50.268;8.694;2024-03-23T10:00:09;98971.53;;;8.31;66.16
77979;BME280;67169;50.268;8.694;2024-03-23T10:02:37;99045.31;;;9.24;65.43
77979;BME280;67169;50.268;8.694;2024-03-23T10:05:03;99034.09;;;10.31;64.00
77979;BME280;67169;50.268;8.694;2024-03-23T10:07:32;99031.31;;;10.52;62.17
77979;BME280;67169;50.268;8.694;2024-03-23T10:09:57;99018.72;;;10.16;60.77
77979;BME280;67169;50.268;8.694;2024-03-23T10:12:24;98974.56;;;10.75;59.46
77979;BME280;67169;50.268;8.694;2024-03-23T10:14:50;99022.41;;;10.68;58.59
77979;BME280;67169;50.268;8.694;2024-03-23T10:17:18;99034.53;;;10.22;58.66
77979;BME280;67169;50.268;8.694;2024-03-23T10:19:44;99023.47;;;9.52;58.63
77979;BME280;67169;50.268;8.694;2024-03-23T10:22:16;99036.00;;;9.13;59.30
77979;BME280;67169;50.268;8.694;2024-03-23T10:24:46;99045.25;;;8.85;60.53
77979;BME280;67169;50.268;8.694;2024-03-23T10:27:15;99063.97;;;8.65;61.30
77979;BME280;67169;50.268;8.694;2024-03-23T10:29:42;99098.88;;;8.18;64.08
77979;BME280;67169;50.268;8.694;2024-03-23T10:32:10;99087.34;;;6.95;69.11
77979;BME280;67169;50.268;8.694;2024-03-23T10:34:36;99134.03;;;5.66;72.70
77979;BME280;67169;50.268;8.694;2024-03-23T10:37:03;99157.41;;;5.57;76.24
77979;BME280;67169;50.268;8.694;2024-03-23T10:39:31;99131.22;;;5.40;78.48
77979;BME280;67169;50.268;8.694;2024-03-23T10:42:01;99135.53;;;5.11;80.03
77979;BME280;67169;50.268;8.694;2024-03-23T10:44:28;99153.34;;;5.09;80.71
77979;BME280;67169;50.268;8.694;2024-03-23T10:46:56;99133.31;;;4.94;81.45
77979;BME280;67169;50.268;8.694;2024-03-23T10:49:25;99148.03;;;5.09;81.45
77979;BME280;67169;50.268;8.694;2024-03-23T10:51:55;99153.03;;;5.21;82.23
77979;BME280;67169;50.268;8.694;2024-03-23T10:54:21;99130.84;;;5.21;82.59
77979;BME280;67169;50.268;8.694;2024-03-23T10:56:49;99136.03;;;5.27;83.35
77979;BME280;67169;50.268;8.694;2024-03-23T10:59:19;99128.91;;;5.28;84.23
77979;BME280;67169;50.268;8.694;2024-03-23T11:01:56;99112.91;;;5.28;84.79
77979;BME280;67169;50.268;8.694;2024-03-23T11:04:33;99119.97;;;5.61;85.86
77979;BME280;67169;50.268;8.694;2024-03-23T11:06:59;99108.84;;;5.77;86.56
77979;BME280;67169;50.268;8.694;2024-03-23T11:09:38;99110.31;;;6.46;85.41
77979;BME280;67169;50.268;8.694;2024-03-23T11:12:17;99106.69;;;7.02;83.29
77979;BME280;67169;50.268;8.694;2024-03-23T11:14:58;99056.06;;;6.97;82.18
77979;BME280;67169;50.268;8.694;2024-03-23T11:17:26;99094.38;;;7.48;80.78
77979;BME280;67169;50.268;8.694;2024-03-23T11:19:56;99101.91;;;7.61;81.07
77979;BME280;67169;50.268;8.694;2024-03-23T11:22:43;99083.56;;;7.26;79.00
77979;BME280;67169;50.268;8.694;2024-03-23T11:25:19;99069.22;;;7.03;78.78
77979;BME280;67169;50.268;8.694;2024-03-23T11:27:48;99055.66;;;6.83;79.17
77979;BME280;67169;50.268;8.694;2024-03-23T11:30:16;99070.50;;;6.92;79.98
77979;BME280;67169;50.268;8.694;2024-03-23T11:32:44;99068.34;;;7.03;80.69
77979;BME280;67169;50.268;8.694;2024-03-23T11:35:10;99081.75;;;7.51;81.05
77979;BME280;67169;50.268;8.694;2024-03-23T11:37:37;99051.69;;;6.95;80.35
77979;BME280;67169;50.268;8.694;2024-03-23T11:40:19;99040.31;;;6.88;80.61
77979;BME280;67169;50.268;8.694;2024-03-23T11:42:46;99052.72;;;6.90;80.57
77979;BME280;67169;50.268;8.694;2024-03-23T11:45:12;99064.06;;;7.22;80.72
77979;BME280;67169;50.268;8.694;2024-03-23T11:47:42;99021.84;;;7.07;80.16
77979;BME280;67169;50.268;8.694;2024-03-23T11:50:08;99037.88;;;7.32;78.48
77979;BME280;67169;50.268;8.694;2024-03-23T11:52:35;99026.88;;;7.16;77.88
77979;BME280;67169;50.268;8.694;2024-03-23T11:55:04;98989.31;;;6.94;77.22
77979;BME280;67169;50.268;8.694;2024-03-23T11:57:33;99007.13;;;8.35;75.97
77979;BME280;67169;50.268;8.694;2024-03-23T11:59:58;99003.09;;;8.67;73.58
77979;BME280;67169;50.268;8.694;2024-03-23T12:02:25;99000.88;;;8.78;72.47
77979;BME280;67169;50.268;8.694;2024-03-23T12:04:52;98972.84;;;9.64;71.92
77979;BME280;67169;50.268;8.694;2024-03-23T12:07:20;98936.38;;;9.20;69.83
77979;BME280;67169;50.268;8.694;2024-03-23T12:09:46;98964.41;;;10.09;68.41
77979;BME280;67169;50.268;8.694;2024-03-23T12:12:14;98960.19;;;10.04;66.86
77979;BME280;67169;50.268;8.694;2024-03-23T12:14:41;98953.66;;;10.45;66.87
77979;BME280;67169;50.268;8.694;2024-03-23T12:17:10;98957.47;;;10.59;66.13
77979;BME280;67169;50.268;8.694;2024-03-23T12:19:35;98969.03;;;9.49;67.24
77979;BME280;67169;50.268;8.694;2024-03-23T12:22:04;98946.16;;;10.16;67.72
77979;BME280;67169;50.268;8.694;2024-03-23T12:24:32;98820.19;;;9.56;66.91
77979;BME280;67169;50.268;8.694;2024-03-23T12:27:01;98951.69;;;10.13;66.53
77979;BME280;67169;50.268;8.694;2024-03-23T12:29:28;98937.22;;;9.02;68.24
77979;BME280;67169;50.268;8.694;2024-03-23T12:31:55;98914.50;;;8.90;68.66
77979;BME280;67169;50.268;8.694;2024-03-23T12:34:21;98967.16;;;9.12;69.05
77979;BME280;67169;50.268;8.694;2024-03-23T12:36:47;98971.06;;;9.04;70.45
77979;BME280;67169;50.268;8.694;2024-03-23T12:39:14;98975.41;;;8.88;70.92
77979;BME280;67169;50.268;8.694;2024-03-23T12:41:41;98977.78;;;8.74;70.91
77979;BME280;67169;50.268;8.694;2024-03-23T12:44:06;98950.44;;;8.86;70.80
77979;BME280;67169;50.268;8.694;2024-03-23T12:46:36;98922.03;;;8.82;70.59
77979;BME280;67169;50.268;8.694;2024-03-23T12:49:02;98977.59;;;9.19;68.85
77979;BME280;67169;50.268;8.694;2024-03-23T12:51:30;98949.56;;;9.06;66.56
77979;BME280;67169;50.268;8.694;2024-03-23T12:53:56;98936.38;;;8.61;64.89
77979;BME280;67169;50.268;8.694;2024-03-23T12:56:24;98981.38;;;8.08;65.00
77979;BME280;67169;50.268;8.694;2024-03-23T12:58:49;98996.75;;;6.86;68.75
77979;BME280;67169;50.268;8.694;2024-03-23T13:01:17;99058.44;;;5.97;74.65
77979;BME280;67169;50.268;8.694;2024-03-23T13:03:46;99091.59;;;5.26;79.40
77979;BME280;67169;50.268;8.694;2024-03-23T13:06:12;99106.09;;;4.82;83.16
77979;BME280;67169;50.268;8.694;2024-03-23T13:08:38;99103.75;;;4.69;85.72
77979;BME280;67169;50.268;8.694;2024-03-23T13:11:06;99107.31;;;4.33;87.25
77979;BME280;67169;50.268;8.694;2024-03-23T13:13:35;99093.50;;;4.15;88.73
77979;BME280;67169;50.268;8.694;2024-03-23T13:16:02;99100.81;;;4.07;90.69
77979;BME280;67169;50.268;8.694;2024-03-23T13:18:31;99169.19;;;4.03;91.82
77979;BME280;67169;50.268;8.694;2024-03-23T13:20:57;99183.75;;;3.84;93.38
77979;BME280;67169;50.268;8.694;2024-03-23T13:23:23;99100.16;;;3.09;93.76
77979;BME280;67169;50.268;8.694;2024-03-23T13:25:50;99191.47;;;3.53;95.26
77979;BME280;67169;50.268;8.694;2024-03-23T13:28:15;99189.25;;;3.28;95.90
77979;BME280;67169;50.268;8.694;2024-03-23T13:30:51;99182.75;;;2.95;96.99
77979;BME280;67169;50.268;8.694;2024-03-23T13:33:17;99175.78;;;2.90;97.70
77979;BME280;67169;50.268;8.694;2024-03-23T13:35:49;99092.72;;;2.27;97.83
77979;BME280;67169;50.268;8.694;2024-03-23T13:38:15;99173.22;;;2.82;98.30
77979;BME280;67169;50.268;8.694;2024-03-23T13:40:50;99051.31;;;2.70;98.86
77979;BME280;67169;50.268;8.694;2024-03-23T13:43:15;99111.88;;;4.26;99.11
77979;BME280;67169;50.268;8.694;2024-03-23T13:45:42;99058.97;;;4.85;97.71
77979;BME280;67169;50.268;8.694;2024-03-23T13:48:09;99084.31;;;4.66;96.70
77979;BME280;67169;50.268;8.694;2024-03-23T13:50:36;99063.13;;;4.61;96.64
77979;BME280;67169;50.268;8.694;2024-03-23T13:53:01;98999.97;;;3.95;95.47
77979;BME280;67169;50.268;8.694;2024-03-23T13:55:28;99035.66;;;4.23;95.24
77979;BME280;67169;50.268;8.694;2024-03-23T13:57:54;99034.59;;;4.31;94.40